sensor_id;sensor_type;location;lat;lon;timestamp;P1;durP1;ratioP1;P2;durP2;ratioP2
69502;SDS011;56704;54.242;12.442;2023-08-08T00:00:56;9.45;;;1.73;;
69502;SDS011;56704;54.242;12.442;2023-08-08T00:03:24;8.25;;;1.13;;
69502;SDS011;56704;54.242;12.442;2023-08-08T00:05:51;10.48;;;1.63;;
69502;SDS011;56704;54.242;12.442;2023-08-08T00:08:18;7.90;;;1.20;;
69502;SDS011;56704;54.242;12.442;2023-08-08T00:10:45;8.80;;;1.30;;
69502;SDS011;56704;54.242;12.442;2023-08-08T00:13:12;8.75;;;1.02;;
69502;SDS011;56704;54.242;12.442;2023-08-08T00:15:40;11.23;;;1.10;;
69502;SDS011;56704;54.242;12.442;2023-08-08T00:18:08;6.07;;;1.45;;
69502;SDS011;56704;54.242;12.442;2023-08-08T00:20:35;5.45;;;0.88;;
69502;SDS011;56704;54.242;12.442;2023-08-08T00:23:03;10.73;;;1.23;;
69502;SDS011;56704;54.242;12.442;2023-08-08T00:25:30;5.55;;;0.90;;
69502;SDS011;56704;54.242;12.442;2023-08-08T00:27:57;7.90;;;1.35;;
69502;SDS011;56704;54.242;12.442;2023-08-08T00:30:24;9.38;;;1.10;;
69502;SDS011;56704;54.242;12.442;2023-08-08T00:32:51;5.55;;;0.90;;
69502;SDS011;56704;54.242;12.442;2023-08-08T00:35:20;7.13;;;1.00;;
69502;SDS011;56704;54.242;12.442;2023-08-08T00:37:48;9.88;;;1.88;;
69502;SDS011;56704;54.242;12.442;2023-08-08T00:40:15;7.25;;;1.13;;
69502;SDS011;56704;54.242;12.442;2023-08-08T00:42:42;10.48;;;1.40;;
69502;SDS011;56704;54.242;12.442;2023-08-08T00:45:09;7.38;;;1.20;;
69502;SDS011;56704;54.242;12.442;2023-08-08T00:47:36;10.30;;;0.93;;
69502;SDS011;56704;54.242;12.442;2023-08-08T00:50:04;7.22;;;1.80;;
69502;SDS011;56704;54.242;12.442;2023-08-08T00:52:33;6.05;;;1.20;;
69502;SDS011;56704;54.242;12.442;2023-08-08T00:55:01;8.60;;;1.25;;
69502;SDS011;56704;54.242;12.442;2023-08-08T00:57:28;9.90;;;1.40;;
69502;SDS011;56704;54.242;12.442;2023-08-08T00:59:55;4.63;;;0.57;;
69502;SDS011;56704;54.242;12.442;2023-08-08T01:02:22;8.32;;;1.35;;
69502;SDS011;56704;54.242;12.442;2023-08-08T01:04:50;9.43;;;1.52;;
69502;SDS011;56704;54.242;12.442;2023-08-08T01:07:19;6.07;;;1.20;;
69502;SDS011;56704;54.242;12.442;2023-08-08T01:09:50;7.90;;;1.30;;
69502;SDS011;56704;54.242;12.442;2023-08-08T01:12:19;6.03;;;1.03;;
69502;SDS011;56704;54.242;12.442;2023-08-08T01:14:46;11.93;;;1.70;;
69502;SDS011;56704;54.242;12.442;2023-08-08T01:17:13;7.70;;;1.17;;
69502;SDS011;56704;54.242;12.442;2023-08-08T01:19:40;7.05;;;1.25;;
69502;SDS011;56704;54.242;12.442;2023-08-08T01:22:09;5.35;;;0.80;;
69502;SDS011;56704;54.242;12.442;2023-08-08T01:24:37;6.13;;;1.80;;
69502;SDS011;56704;54.242;12.442;2023-08-08T01:27:05;10.05;;;1.02;;
69502;SDS011;56704;54.242;12.442;2023-08-08T01:29:32;8.27;;;1.10;;
69502;SDS011;56704;54.242;12.442;2023-08-08T01:31:59;8.07;;;1.23;;
69502;SDS011;56704;54.242;12.442;2023-08-08T01:34:27;7.32;;;1.20;;
69502;SDS011;56704;54.242;12.442;2023-08-08T01:36:55;7.70;;;1.00;;
69502;SDS011;56704;54.242;12.442;2023-08-08T01:39:26;10.00;;;1.17;;
69502;SDS011;56704;54.242;12.442;2023-08-08T01:41:55;9.73;;;1.27;;
69502;SDS011;56704;54.242;12.442;2023-08-08T01:44:23;6.95;;;1.25;;
69502;SDS011;56704;54.242;12.442;2023-08-08T01:46:51;7.90;;;1.10;;
69502;SDS011;56704;54.242;12.442;2023-08-08T01:49:18;5.80;;;0.80;;
69502;SDS011;56704;54.242;12.442;2023-08-08T01:51:46;8.63;;;0.90;;
69502;SDS011;56704;54.242;12.442;2023-08-08T01:54:15;5.88;;;0.82;;
69502;SDS011;56704;54.242;12.442;2023-08-08T01:56:42;11.55;;;1.00;;
69502;SDS011;56704;54.242;12.442;2023-08-08T01:59:11;6.18;;;0.82;;
69502;SDS011;56704;54.242;12.442;2023-08-08T02:01:38;8.07;;;1.30;;
69502;SDS011;56704;54.242;12.442;2023-08-08T02:04:05;7.78;;;1.52;;
69502;SDS011;56704;54.242;12.442;2023-08-08T02:06:32;8.07;;;1.15;;
69502;SDS011;56704;54.242;12.442;2023-08-08T02:09:00;9.32;;;1.70;;
69502;SDS011;56704;54.242;12.442;2023-08-08T02:11:27;6.90;;;1.02;;
69502;SDS011;56704;54.242;12.442;2023-08-08T02:13:54;7.73;;;1.00;;
69502;SDS011;56704;54.242;12.442;2023-08-08T02:16:22;6.80;;;1.00;;
69502;SDS011;56704;54.242;12.442;2023-08-08T02:18:50;8.68;;;1.20;;
69502;SDS011;56704;54.242;12.442;2023-08-08T02:21:17;5.35;;;1.08;;
69502;SDS011;56704;54.242;12.442;2023-08-08T02:23:44;8.00;;;1.60;;
69502;SDS011;56704;54.242;12.442;2023-08-08T02:26:11;5.53;;;0.80;;
69502;SDS011;56704;54.242;12.442;2023-08-08T02:28:38;8.40;;;0.95;;
69502;SDS011;56704;54.242;12.442;2023-08-08T02:31:06;5.40;;;0.50;;
69502;SDS011;56704;54.242;12.442;2023-08-08T02:33:34;10.45;;;1.63;;
69502;SDS011;56704;54.242;12.442;2023-08-08T02:36:01;7.25;;;0.80;;
69502;SDS011;56704;54.242;12.442;2023-08-08T02:38:29;6.27;;;0.90;;
69502;SDS011;56704;54.242;12.442;2023-08-08T02:40:56;8.13;;;1.13;;
69502;SDS011;56704;54.242;12.442;2023-08-08T02:43:23;5.60;;;0.63;;
69502;SDS011;56704;54.242;12.442;2023-08-08T02:45:50;8.43;;;0.70;;
69502;SDS011;56704;54.242;12.442;2023-08-08T02:48:17;5.50;;;0.90;;
69502;SDS011;56704;54.242;12.442;2023-08-08T02:50:46;5.43;;;0.90;;
69502;SDS011;56704;54.242;12.442;2023-08-08T02:53:13;6.82;;;0.80;;
69502;SDS011;56704;54.242;12.442;2023-08-08T02:55:40;9.45;;;1.23;;
69502;SDS011;56704;54.242;12.442;2023-08-08T02:58:07;7.68;;;1.23;;
69502;SDS011;56704;54.242;12.442;2023-08-08T03:00:34;5.18;;;0.80;;
69502;SDS011;56704;54.242;12.442;2023-08-08T03:03:01;9.87;;;1.00;;
69502;SDS011;56704;54.242;12.442;2023-08-08T03:05:29;6.40;;;0.55;;
69502;SDS011;56704;54.242;12.442;2023-08-08T03:07:57;5.25;;;1.02;;
69502;SDS011;56704;54.242;12.442;2023-08-08T03:10:24;5.97;;;0.70;;
69502;SDS011;56704;54.242;12.442;2023-08-08T03:12:51;7.68;;;1.10;;
69502;SDS011;56704;54.242;12.442;2023-08-08T03:15:19;8.27;;;0.77;;
69502;SDS011;56704;54.242;12.442;2023-08-08T03:17:46;6.22;;;0.75;;
69502;SDS011;56704;54.242;12.442;2023-08-08T03:20:13;4.75;;;0.80;;
69502;SDS011;56704;54.242;12.442;2023-08-08T03:22:40;6.13;;;1.23;;
69502;SDS011;56704;54.242;12.442;2023-08-08T03:25:08;5.22;;;0.70;;
69502;SDS011;56704;54.242;12.442;2023-08-08T03:27:36;7.17;;;1.00;;
69502;SDS011;56704;54.242;12.442;2023-08-08T03:30:03;3.00;;;0.68;;
69502;SDS011;56704;54.242;12.442;2023-08-08T03:32:31;10.82;;;1.00;;
69502;SDS011;56704;54.242;12.442;2023-08-08T03:34:58;6.90;;;0.75;;
69502;SDS011;56704;54.242;12.442;2023-08-08T03:37:25;5.68;;;1.13;;
69502;SDS011;56704;54.242;12.442;2023-08-08T03:39:52;7.13;;;0.77;;
69502;SDS011;56704;54.242;12.442;2023-08-08T03:42:20;6.38;;;0.90;;
69502;SDS011;56704;54.242;12.442;2023-08-08T03:44:48;5.10;;;0.73;;
69502;SDS011;56704;54.242;12.442;2023-08-08T03:47:15;5.63;;;0.63;;
69502;SDS011;56704;54.242;12.442;2023-08-08T03:49:42;6.60;;;0.85;;
69502;SDS011;56704;54.242;12.442;2023-08-08T03:52:09;4.03;;;0.70;;
69502;SDS011;56704;54.242;12.442;2023-08-08T03:54:36;4.35;;;0.73;;
69502;SDS011;56704;54.242;12.442;2023-08-08T03:57:03;5.47;;;1.08;;
69502;SDS011;56704;54.242;12.442;2023-08-08T03:59:32;9.68;;;0.93;;
69502;SDS011;56704;54.242;12.442;2023-08-08T04:01:59;6.05;;;0.65;;
69502;SDS011;56704;54.242;12.442;2023-08-08T04:04:29;3.80;;;0.70;;
69502;SDS011;56704;54.242;12.442;2023-08-08T04:06:56;6.00;;;0.70;;
69502;SDS011;56704;54.242;12.442;2023-08-08T04:09:24;6.03;;;1.05;;
69502;SDS011;56704;54.242;12.442;2023-08-08T04:11:51;8.43;;;1.17;;
69502;SDS011;56704;54.242;12.442;2023-08-08T04:14:18;6.50;;;1.27;;
69502;SDS011;56704;54.242;12.442;2023-08-08T04:16:47;7.13;;;1.13;;
69502;SDS011;56704;54.242;12.442;2023-08-08T04:19:14;6.10;;;0.80;;
69502;SDS011;56704;54.242;12.442;2023-08-08T04:21:41;4.65;;;0.70;;
69502;SDS011;56704;54.242;12.442;2023-08-08T04:24:08;7.07;;;0.88;;
69502;SDS011;56704;54.242;12.442;2023-08-08T04:26:37;7.60;;;1.13;;
69502;SDS011;56704;54.242;12.442;2023-08-08T04:29:04;7.87;;;0.80;;
69502;SDS011;56704;54.242;12.442;2023-08-08T04:31:31;5.45;;;1.00;;
69502;SDS011;56704;54.242;12.442;2023-08-08T04:34:00;6.68;;;1.27;;
69502;SDS011;56704;54.242;12.442;2023-08-08T04:36:28;5.63;;;0.52;;
69502;SDS011;56704;54.242;12.442;2023-08-08T04:38:55;5.10;;;0.80;;
69502;SDS011;56704;54.242;12.442;2023-08-08T04:41:22;5.10;;;1.00;;
69502;SDS011;56704;54.242;12.442;2023-08-08T04:43:49;6.57;;;1.20;;
69502;SDS011;56704;54.242;12.442;2023-08-08T04:46:16;9.32;;;1.23;;
69502;SDS011;56704;54.242;12.442;2023-08-08T04:48:44;4.90;;;0.85;;
69502;SDS011;56704;54.242;12.442;2023-08-08T04:51:12;8.85;;;0.90;;
69502;SDS011;56704;54.242;12.442;2023-08-08T04:53:39;7.97;;;1.03;;
69502;SDS011;56704;54.242;12.442;2023-08-08T04:56:06;5.20;;;0.60;;
69502;SDS011;56704;54.242;12.442;2023-08-08T04:58:33;5.07;;;0.90;;
69502;SDS011;56704;54.242;12.442;2023-08-08T05:01:00;4.70;;;1.00;;
69502;SDS011;56704;54.242;12.442;2023-08-08T05:03:28;6.78;;;1.00;;
69502;SDS011;56704;54.242;12.442;2023-08-08T05:05:55;9.30;;;0.87;;
69502;SDS011;56704;54.242;12.442;2023-08-08T05:08:25;4.53;;;0.82;;
69502;SDS011;56704;54.242;12.442;2023-08-08T05:10:53;4.72;;;1.20;;
69502;SDS011;56704;54.242;12.442;2023-08-08T05:13:20;4.68;;;0.82;;
69502;SDS011;56704;54.242;12.442;2023-08-08T05:15:47;4.78;;;0.70;;
69502;SDS011;56704;54.242;12.442;2023-08-08T05:18:14;4.47;;;0.80;;
69502;SDS011;56704;54.242;12.442;2023-08-08T05:20:41;3.33;;;0.50;;
69502;SDS011;56704;54.242;12.442;2023-08-08T05:23:08;6.47;;;0.85;;
69502;SDS011;56704;54.242;12.442;2023-08-08T05:25:37;4.22;;;0.50;;
69502;SDS011;56704;54.242;12.442;2023-08-08T05:28:04;8.35;;;1.50;;
69502;SDS011;56704;54.242;12.442;2023-08-08T05:30:31;7.77;;;0.93;;
69502;SDS011;56704;54.242;12.442;2023-08-08T05:32:59;10.25;;;0.93;;
69502;SDS011;56704;54.242;12.442;2023-08-08T05:35:26;4.85;;;0.85;;
69502;SDS011;56704;54.242;12.442;2023-08-08T05:37:53;4.88;;;0.55;;
69502;SDS011;56704;54.242;12.442;2023-08-08T05:40:21;4.93;;;0.88;;
69502;SDS011;56704;54.242;12.442;2023-08-08T05:42:49;7.17;;;0.53;;
69502;SDS011;56704;54.242;12.442;2023-08-08T05:45:16;4.07;;;0.70;;
69502;SDS011;56704;54.242;12.442;2023-08-08T05:47:43;5.40;;;0.70;;
69502;SDS011;56704;54.242;12.442;2023-08-08T05:50:11;5.35;;;0.93;;
69502;SDS011;56704;54.242;12.442;2023-08-08T05:52:38;3.90;;;0.60;;
69502;SDS011;56704;54.242;12.442;2023-08-08T05:55:05;6.90;;;1.00;;
69502;SDS011;56704;54.242;12.442;2023-08-08T05:57:32;4.15;;;0.50;;
69502;SDS011;56704;54.242;12.442;2023-08-08T06:00:01;5.35;;;0.55;;
69502;SDS011;56704;54.242;12.442;2023-08-08T06:02:28;4.70;;;0.50;;
69502;SDS011;56704;54.242;12.442;2023-08-08T06:04:55;7.57;;;0.85;;
69502;SDS011;56704;54.242;12.442;2023-08-08T06:07:22;3.87;;;0.60;;
69502;SDS011;56704;54.242;12.442;2023-08-08T06:09:50;6.15;;;0.80;;
69502;SDS011;56704;54.242;12.442;2023-08-08T06:12:17;5.13;;;0.73;;
69502;SDS011;56704;54.242;12.442;2023-08-08T06:14:44;5.95;;;0.93;;
69502;SDS011;56704;54.242;12.442;2023-08-08T06:17:12;5.72;;;0.73;;
69502;SDS011;56704;54.242;12.442;2023-08-08T06:19:40;4.37;;;0.63;;
69502;SDS011;56704;54.242;12.442;2023-08-08T06:22:07;3.10;;;0.68;;
69502;SDS011;56704;54.242;12.442;2023-08-08T06:24:34;6.72;;;0.90;;
69502;SDS011;56704;54.242;12.442;2023-08-08T06:27:01;6.50;;;0.80;;
69502;SDS011;56704;54.242;12.442;2023-08-08T06:29:28;3.33;;;0.40;;
69502;SDS011;56704;54.242;12.442;2023-08-08T06:31:55;4.93;;;0.83;;
69502;SDS011;56704;54.242;12.442;2023-08-08T06:34:24;4.72;;;0.40;;
69502;SDS011;56704;54.242;12.442;2023-08-08T06:36:51;8.38;;;0.93;;
69502;SDS011;56704;54.242;12.442;2023-08-08T06:39:18;3.63;;;0.60;;
69502;SDS011;56704;54.242;12.442;2023-08-08T06:41:46;4.50;;;0.82;;
69502;SDS011;56704;54.242;12.442;2023-08-08T06:44:14;3.83;;;0.50;;
69502;SDS011;56704;54.242;12.442;2023-08-08T06:46:41;4.97;;;0.60;;
69502;SDS011;56704;54.242;12.442;2023-08-08T06:49:08;4.70;;;0.68;;
69502;SDS011;56704;54.242;12.442;2023-08-08T06:51:36;5.82;;;0.90;;
69502;SDS011;56704;54.242;12.442;2023-08-08T06:54:04;7.95;;;1.17;;
69502;SDS011;56704;54.242;12.442;2023-08-08T06:56:32;3.13;;;0.60;;
69502;SDS011;56704;54.242;12.442;2023-08-08T06:59:00;4.63;;;0.40;;
69502;SDS011;56704;54.242;12.442;2023-08-08T07:01:27;2.90;;;0.70;;
69502;SDS011;56704;54.242;12.442;2023-08-08T07:03:54;5.60;;;0.65;;
69502;SDS011;56704;54.242;12.442;2023-08-08T07:06:22;5.22;;;0.77;;
69502;SDS011;56704;54.242;12.442;2023-08-08T07:08:51;5.50;;;0.50;;
69502;SDS011;56704;54.242;12.442;2023-08-08T07:11:18;4.28;;;0.60;;
69502;SDS011;56704;54.242;12.442;2023-08-08T07:13:47;4.70;;;0.85;;
69502;SDS011;56704;54.242;12.442;2023-08-08T07:16:14;5.60;;;0.60;;
69502;SDS011;56704;54.242;12.442;2023-08-08T07:18:41;4.90;;;0.90;;
69502;SDS011;56704;54.242;12.442;2023-08-08T07:21:08;4.03;;;0.60;;
69502;SDS011;56704;54.242;12.442;2023-08-08T07:23:35;4.57;;;0.75;;
69502;SDS011;56704;54.242;12.442;2023-08-08T07:26:04;3.67;;;0.60;;
69502;SDS011;56704;54.242;12.442;2023-08-08T07:28:31;3.35;;;0.50;;
69502;SDS011;56704;54.242;12.442;2023-08-08T07:30:58;2.92;;;0.30;;
69502;SDS011;56704;54.242;12.442;2023-08-08T07:33:25;3.20;;;0.73;;
69502;SDS011;56704;54.242;12.442;2023-08-08T07:35:52;3.88;;;0.65;;
69502;SDS011;56704;54.242;12.442;2023-08-08T07:38:20;3.88;;;0.52;;
69502;SDS011;56704;54.242;12.442;2023-08-08T07:40:47;3.70;;;0.68;;
69502;SDS011;56704;54.242;12.442;2023-08-08T07:43:15;4.50;;;0.55;;
69502;SDS011;56704;54.242;12.442;2023-08-08T07:45:42;4.83;;;0.43;;
69502;SDS011;56704;54.242;12.442;2023-08-08T07:48:09;3.25;;;0.32;;
69502;SDS011;56704;54.242;12.442;2023-08-08T07:50:37;3.67;;;0.40;;
69502;SDS011;56704;54.242;12.442;2023-08-08T07:53:04;3.17;;;0.55;;
69502;SDS011;56704;54.242;12.442;2023-08-08T07:55:31;3.58;;;0.57;;
69502;SDS011;56704;54.242;12.442;2023-08-08T07:57:58;4.23;;;0.70;;
69502;SDS011;56704;54.242;12.442;2023-08-08T08:00:27;2.53;;;0.38;;
69502;SDS011;56704;54.242;12.442;2023-08-08T08:02:54;6.13;;;0.80;;
69502;SDS011;56704;54.242;12.442;2023-08-08T08:05:23;4.57;;;0.47;;
69502;SDS011;56704;54.242;12.442;2023-08-08T08:07:50;4.60;;;0.40;;
69502;SDS011;56704;54.242;12.442;2023-08-08T08:10:17;7.63;;;0.60;;
69502;SDS011;56704;54.242;12.442;2023-08-08T08:12:51;3.50;;;0.35;;
69502;SDS011;56704;54.242;12.442;2023-08-08T08:15:23;5.32;;;0.60;;
69502;SDS011;56704;54.242;12.442;2023-08-08T08:17:51;5.03;;;0.50;;
69502;SDS011;56704;54.242;12.442;2023-08-08T08:20:18;2.58;;;0.30;;
69502;SDS011;56704;54.242;12.442;2023-08-08T08:22:46;4.00;;;0.40;;
69502;SDS011;56704;54.242;12.442;2023-08-08T08:25:13;6.07;;;0.68;;
69502;SDS011;56704;54.242;12.442;2023-08-08T08:27:40;5.35;;;0.93;;
69502;SDS011;56704;54.242;12.442;2023-08-08T08:30:08;4.43;;;0.50;;
69502;SDS011;56704;54.242;12.442;2023-08-08T08:32:35;3.38;;;0.55;;
69502;SDS011;56704;54.242;12.442;2023-08-08T08:35:05;4.47;;;0.60;;
69502;SDS011;56704;54.242;12.442;2023-08-08T08:37:34;5.70;;;0.73;;
69502;SDS011;56704;54.242;12.442;2023-08-08T08:40:02;4.70;;;0.88;;
69502;SDS011;56704;54.242;12.442;2023-08-08T08:42:30;3.00;;;0.60;;
69502;SDS011;56704;54.242;12.442;2023-08-08T08:44:58;5.97;;;0.63;;
69502;SDS011;56704;54.242;12.442;2023-08-08T08:47:25;3.33;;;0.53;;
69502;SDS011;56704;54.242;12.442;2023-08-08T08:49:55;3.47;;;0.55;;
69502;SDS011;56704;54.242;12.442;2023-08-08T08:52:24;3.65;;;0.50;;
69502;SDS011;56704;54.242;12.442;2023-08-08T08:54:52;3.88;;;0.47;;
69502;SDS011;56704;54.242;12.442;2023-08-08T08:57:20;4.50;;;0.55;;
69502;SDS011;56704;54.242;12.442;2023-08-08T08:59:48;2.80;;;0.30;;
69502;SDS011;56704;54.242;12.442;2023-08-08T09:02:15;2.72;;;0.45;;
69502;SDS011;56704;54.242;12.442;2023-08-08T09:04:43;4.68;;;0.60;;
69502;SDS011;56704;54.242;12.442;2023-08-08T09:07:12;3.70;;;0.80;;
69502;SDS011;56704;54.242;12.442;2023-08-08T09:09:41;2.50;;;0.50;;
69502;SDS011;56704;54.242;12.442;2023-08-08T09:12:09;3.83;;;0.30;;
69502;SDS011;56704;54.242;12.442;2023-08-08T09:14:39;2.70;;;0.50;;
69502;SDS011;56704;54.242;12.442;2023-08-08T09:17:09;3.13;;;0.43;;
69502;SDS011;56704;54.242;12.442;2023-08-08T09:19:37;4.22;;;0.60;;
69502;SDS011;56704;54.242;12.442;2023-08-08T09:22:04;5.03;;;0.55;;
69502;SDS011;56704;54.242;12.442;2023-08-08T09:24:32;6.40;;;0.70;;
69502;SDS011;56704;54.242;12.442;2023-08-08T09:27:01;4.75;;;0.80;;
69502;SDS011;56704;54.242;12.442;2023-08-08T09:29:29;7.93;;;0.88;;
69502;SDS011;56704;54.242;12.442;2023-08-08T09:31:56;3.00;;;0.50;;
69502;SDS011;56704;54.242;12.442;2023-08-08T09:34:25;4.22;;;0.80;;
69502;SDS011;56704;54.242;12.442;2023-08-08T09:36:52;2.77;;;0.50;;
69502;SDS011;56704;54.242;12.442;2023-08-08T09:39:19;4.45;;;0.90;;
69502;SDS011;56704;54.242;12.442;2023-08-08T09:41:47;5.75;;;0.80;;
69502;SDS011;56704;54.242;12.442;2023-08-08T09:44:15;5.00;;;0.60;;
69502;SDS011;56704;54.242;12.442;2023-08-08T09:46:43;1.90;;;0.45;;
69502;SDS011;56704;54.242;12.442;2023-08-08T09:49:10;4.20;;;0.60;;
69502;SDS011;56704;54.242;12.442;2023-08-08T09:51:37;3.22;;;0.50;;
69502;SDS011;56704;54.242;12.442;2023-08-08T09:54:05;3.80;;;0.70;;
69502;SDS011;56704;54.242;12.442;2023-08-08T09:56:33;6.68;;;0.85;;
69502;SDS011;56704;54.242;12.442;2023-08-08T09:59:01;4.00;;;0.77;;
69502;SDS011;56704;54.242;12.442;2023-08-08T10:01:30;3.10;;;0.40;;
69502;SDS011;56704;54.242;12.442;2023-08-08T10:03:58;2.58;;;0.30;;
69502;SDS011;56704;54.242;12.442;2023-08-08T10:06:26;3.63;;;0.52;;
69502;SDS011;56704;54.242;12.442;2023-08-08T10:08:53;5.68;;;1.00;;
69502;SDS011;56704;54.242;12.442;2023-08-08T10:11:21;2.58;;;0.40;;
69502;SDS011;56704;54.242;12.442;2023-08-08T10:13:50;7.07;;;0.67;;
69502;SDS011;56704;54.242;12.442;2023-08-08T10:16:17;3.45;;;0.73;;
69502;SDS011;56704;54.242;12.442;2023-08-08T10:18:46;3.08;;;0.22;;
69502;SDS011;56704;54.242;12.442;2023-08-08T10:21:22;2.30;;;0.40;;
69502;SDS011;56704;54.242;12.442;2023-08-08T10:23:49;3.75;;;0.60;;
69502;SDS011;56704;54.242;12.442;2023-08-08T10:26:27;4.20;;;0.60;;
69502;SDS011;56704;54.242;12.442;2023-08-08T10:28:55;2.60;;;0.40;;
69502;SDS011;56704;54.242;12.442;2023-08-08T10:31:22;3.10;;;0.50;;
69502;SDS011;56704;54.242;12.442;2023-08-08T10:34:00;2.28;;;0.40;;
69502;SDS011;56704;54.242;12.442;2023-08-08T10:36:42;2.95;;;0.55;;
69502;SDS011;56704;54.242;12.442;2023-08-08T10:39:10;3.73;;;0.47;;
69502;SDS011;56704;54.242;12.442;2023-08-08T10:41:43;2.80;;;0.20;;
69502;SDS011;56704;54.242;12.442;2023-08-08T10:44:11;2.83;;;0.28;;
69502;SDS011;56704;54.242;12.442;2023-08-08T10:46:40;2.05;;;0.20;;
69502;SDS011;56704;54.242;12.442;2023-08-08T10:49:10;3.05;;;0.32;;
69502;SDS011;56704;54.242;12.442;2023-08-08T10:51:40;4.13;;;0.60;;
69502;SDS011;56704;54.242;12.442;2023-08-08T10:54:11;4.10;;;0.40;;
69502;SDS011;56704;54.242;12.442;2023-08-08T10:56:39;3.50;;;0.50;;
69502;SDS011;56704;54.242;12.442;2023-08-08T10:59:13;1.30;;;0.45;;
69502;SDS011;56704;54.242;12.442;2023-08-08T11:01:41;3.03;;;0.22;;
69502;SDS011;56704;54.242;12.442;2023-08-08T11:04:11;2.53;;;0.37;;
69502;SDS011;56704;54.242;12.442;2023-08-08T11:06:38;4.88;;;0.35;;
69502;SDS011;56704;54.242;12.442;2023-08-08T11:09:06;5.82;;;0.60;;
69502;SDS011;56704;54.242;12.442;2023-08-08T11:11:35;7.55;;;0.73;;
69502;SDS011;56704;54.242;12.442;2023-08-08T11:14:08;3.33;;;0.55;;
69502;SDS011;56704;54.242;12.442;2023-08-08T11:16:35;7.03;;;1.07;;
69502;SDS011;56704;54.242;12.442;2023-08-08T11:19:03;4.53;;;0.70;;
69502;SDS011;56704;54.242;12.442;2023-08-08T11:21:31;3.78;;;0.82;;
69502;SDS011;56704;54.242;12.442;2023-08-08T11:24:00;3.33;;;0.70;;
69502;SDS011;56704;54.242;12.442;2023-08-08T11:26:27;2.80;;;0.38;;
69502;SDS011;56704;54.242;12.442;2023-08-08T11:28:56;2.10;;;0.40;;
69502;SDS011;56704;54.242;12.442;2023-08-08T11:31:24;9.68;;;0.70;;
69502;SDS011;56704;54.242;12.442;2023-08-08T11:33:52;5.32;;;0.95;;
69502;SDS011;56704;54.242;12.442;2023-08-08T11:36:19;6.85;;;0.80;;
69502;SDS011;56704;54.242;12.442;2023-08-08T11:38:49;4.72;;;0.55;;
69502;SDS011;56704;54.242;12.442;2023-08-08T11:41:17;7.60;;;0.80;;
69502;SDS011;56704;54.242;12.442;2023-08-08T11:43:44;7.00;;;0.93;;
69502;SDS011;56704;54.242;12.442;2023-08-08T11:46:12;5.32;;;1.00;;
69502;SDS011;56704;54.242;12.442;2023-08-08T11:48:40;3.83;;;0.70;;
69502;SDS011;56704;54.242;12.442;2023-08-08T11:51:07;4.47;;;0.93;;
69502;SDS011;56704;54.242;12.442;2023-08-08T11:53:34;2.90;;;0.30;;
69502;SDS011;56704;54.242;12.442;2023-08-08T11:56:03;2.22;;;0.52;;
69502;SDS011;56704;54.242;12.442;2023-08-08T11:58:31;3.10;;;0.40;;
69502;SDS011;56704;54.242;12.442;2023-08-08T12:00:58;2.08;;;0.30;;
69502;SDS011;56704;54.242;12.442;2023-08-08T12:03:26;3.78;;;0.47;;
69502;SDS011;56704;54.242;12.442;2023-08-08T12:05:53;2.90;;;0.30;;
69502;SDS011;56704;54.242;12.442;2023-08-08T12:08:21;3.70;;;0.50;;
69502;SDS011;56704;54.242;12.442;2023-08-08T12:10:49;2.55;;;0.55;;
69502;SDS011;56704;54.242;12.442;2023-08-08T12:13:21;2.53;;;0.50;;
69502;SDS011;56704;54.242;12.442;2023-08-08T12:15:52;3.08;;;0.50;;
69502;SDS011;56704;54.242;12.442;2023-08-08T12:18:19;3.33;;;0.23;;
69502;SDS011;56704;54.242;12.442;2023-08-08T12:20:46;2.90;;;0.38;;
69502;SDS011;56704;54.242;12.442;2023-08-08T12:23:14;1.75;;;0.32;;
69502;SDS011;56704;54.242;12.442;2023-08-08T12:25:42;2.97;;;0.60;;
69502;SDS011;56704;54.242;12.442;2023-08-08T12:28:09;3.20;;;0.85;;
69502;SDS011;56704;54.242;12.442;2023-08-08T12:30:37;4.37;;;0.70;;
69502;SDS011;56704;54.242;12.442;2023-08-08T12:33:05;2.58;;;0.50;;
69502;SDS011;56704;54.242;12.442;2023-08-08T12:35:32;1.75;;;0.40;;
69502;SDS011;56704;54.242;12.442;2023-08-08T12:37:59;1.88;;;0.45;;
69502;SDS011;56704;54.242;12.442;2023-08-08T12:40:27;6.88;;;0.63;;
69502;SDS011;56704;54.242;12.442;2023-08-08T12:42:55;2.40;;;0.43;;
69502;SDS011;56704;54.242;12.442;2023-08-08T12:45:22;4.70;;;0.60;;
69502;SDS011;56704;54.242;12.442;2023-08-08T12:47:50;2.78;;;0.28;;
69502;SDS011;56704;54.242;12.442;2023-08-08T12:50:18;2.92;;;0.50;;
69502;SDS011;56704;54.242;12.442;2023-08-08T12:52:46;2.65;;;0.40;;
69502;SDS011;56704;54.242;12.442;2023-08-08T12:55:13;1.73;;;0.20;;
69502;SDS011;56704;54.242;12.442;2023-08-08T12:57:42;6.30;;;1.40;;
69502;SDS011;56704;54.242;12.442;2023-08-08T13:00:10;5.03;;;0.55;;
69502;SDS011;56704;54.242;12.442;2023-08-08T13:02:39;4.28;;;0.55;;
69502;SDS011;56704;54.242;12.442;2023-08-08T13:05:08;2.85;;;0.40;;
69502;SDS011;56704;54.242;12.442;2023-08-08T13:07:35;1.30;;;0.20;;
69502;SDS011;56704;54.242;12.442;2023-08-08T13:10:02;3.45;;;0.40;;
69502;SDS011;56704;54.242;12.442;2023-08-08T13:12:30;3.22;;;0.10;;
69502;SDS011;56704;54.242;12.442;2023-08-08T13:14:57;1.98;;;0.20;;
69502;SDS011;56704;54.242;12.442;2023-08-08T13:17:24;4.55;;;0.40;;
69502;SDS011;56704;54.242;12.442;2023-08-08T13:19:51;5.70;;;0.40;;
69502;SDS011;56704;54.242;12.442;2023-08-08T13:22:19;5.90;;;0.70;;
69502;SDS011;56704;54.242;12.442;2023-08-08T13:24:47;3.72;;;0.70;;
69502;SDS011;56704;54.242;12.442;2023-08-08T13:27:14;3.50;;;0.45;;
69502;SDS011;56704;54.242;12.442;2023-08-08T13:29:41;2.83;;;0.32;;
69502;SDS011;56704;54.242;12.442;2023-08-08T13:32:08;2.27;;;0.20;;
69502;SDS011;56704;54.242;12.442;2023-08-08T13:34:35;2.63;;;0.22;;
69502;SDS011;56704;54.242;12.442;2023-08-08T13:37:02;1.63;;;0.20;;
69502;SDS011;56704;54.242;12.442;2023-08-08T13:39:31;3.47;;;0.10;;
69502;SDS011;56704;54.242;12.442;2023-08-08T13:41:58;3.78;;;0.38;;
69502;SDS011;56704;54.242;12.442;2023-08-08T13:44:25;1.27;;;0.10;;
69502;SDS011;56704;54.242;12.442;2023-08-08T13:46:53;3.25;;;0.35;;
69502;SDS011;56704;54.242;12.442;2023-08-08T13:49:20;2.28;;;0.20;;
69502;SDS011;56704;54.242;12.442;2023-08-08T13:51:51;3.22;;;0.30;;
69502;SDS011;56704;54.242;12.442;2023-08-08T13:54:18;3.22;;;0.30;;
69502;SDS011;56704;54.242;12.442;2023-08-08T13:56:47;4.60;;;0.40;;
69502;SDS011;56704;54.242;12.442;2023-08-08T13:59:14;2.47;;;0.40;;
69502;SDS011;56704;54.242;12.442;2023-08-08T14:01:41;3.65;;;0.30;;
69502;SDS011;56704;54.242;12.442;2023-08-08T14:04:08;4.97;;;0.30;;
69502;SDS011;56704;54.242;12.442;2023-08-08T14:06:36;4.60;;;0.55;;
69502;SDS011;56704;54.242;12.442;2023-08-08T14:09:03;1.27;;;0.20;;
69502;SDS011;56704;54.242;12.442;2023-08-08T14:11:30;2.03;;;0.30;;
69502;SDS011;56704;54.242;12.442;2023-08-08T14:13:59;3.25;;;0.50;;
69502;SDS011;56704;54.242;12.442;2023-08-08T14:16:26;1.52;;;0.30;;
69502;SDS011;56704;54.242;12.442;2023-08-08T14:18:53;3.15;;;0.45;;
69502;SDS011;56704;54.242;12.442;2023-08-08T14:21:20;3.50;;;0.23;;
69502;SDS011;56704;54.242;12.442;2023-08-08T14:23:47;2.10;;;0.30;;
69502;SDS011;56704;54.242;12.442;2023-08-08T14:26:14;5.32;;;0.63;;
69502;SDS011;56704;54.242;12.442;2023-08-08T14:31:47;1.60;;;0.40;;
69502;SDS011;56704;54.242;12.442;2023-08-08T14:34:14;2.03;;;0.40;;
69502;SDS011;56704;54.242;12.442;2023-08-08T14:36:42;2.47;;;0.30;;
69502;SDS011;56704;54.242;12.442;2023-08-08T14:39:09;3.00;;;0.30;;